sensor_id;sensor_type;location;lat;lon;timestamp;temperature;humidity
1155;DHT22;566;48.414;9.118;2022-11-28T00:00:36;5.00;91.20
1155;DHT22;566;48.414;9.118;2022-11-28T00:03:02;5.00;91.60
1155;DHT22;566;48.414;9.118;2022-11-28T00:05:28;5.00;92.00
1155;DHT22;566;48.414;9.118;2022-11-28T00:07:53;5.00;92.30
1155;DHT22;566;48.414;9.118;2022-11-28T00:10:20;5.00;92.90
1155;DHT22;566;48.414;9.118;2022-11-28T00:12:46;5.00;93.30
1155;DHT22;566;48.414;9.118;2022-11-28T00:15:12;4.90;92.90
1155;DHT22;566;48.414;9.118;2022-11-28T00:17:37;4.90;93.40
1155;DHT22;566;48.414;9.118;2022-11-28T00:20:03;4.80;93.90
1155;DHT22;566;48.414;9.118;2022-11-28T00:22:29;4.80;93.80
1155;DHT22;566;48.414;9.118;2022-11-28T00:24:55;4.70;93.80
1155;DHT22;566;48.414;9.118;2022-11-28T00:27:23;4.70;93.80
1155;DHT22;566;48.414;9.118;2022-11-28T00:29:49;4.70;94.10
1155;DHT22;566;48.414;9.118;2022-11-28T00:32:14;4.60;95.20
1155;DHT22;566;48.414;9.118;2022-11-28T00:34:40;4.40;96.40
1155;DHT22;566;48.414;9.118;2022-11-28T00:37:05;4.20;97.40
1155;DHT22;566;48.414;9.118;2022-11-28T00:39:31;4.10;98.00
1155;DHT22;566;48.414;9.118;2022-11-28T00:41:56;3.90;98.00
1155;DHT22;566;48.414;9.118;2022-11-28T00:44:22;3.80;98.00
1155;DHT22;566;48.414;9.118;2022-11-28T00:46:47;3.80;98.00
1155;DHT22;566;48.414;9.118;2022-11-28T00:49:13;3.70;98.00
1155;DHT22;566;48.414;9.118;2022-11-28T00:51:39;3.60;98.00
1155;DHT22;566;48.414;9.118;2022-11-28T00:54:05;3.60;98.00
1155;DHT22;566;48.414;9.118;2022-11-28T00:56:34;3.60;98.00
1155;DHT22;566;48.414;9.118;2022-11-28T00:59:00;3.60;98.00
1155;DHT22;566;48.414;9.118;2022-11-28T01:01:31;3.70;98.00
1155;DHT22;566;48.414;9.118;2022-11-28T01:03:59;3.90;98.00
1155;DHT22;566;48.414;9.118;2022-11-28T01:06:34;4.00;98.00
1155;DHT22;566;48.414;9.118;2022-11-28T01:09:04;4.10;97.70
1155;DHT22;566;48.414;9.118;2022-11-28T01:11:29;4.10;96.70
1155;DHT22;566;48.414;9.118;2022-11-28T01:13:57;4.20;96.60
1155;DHT22;566;48.414;9.118;2022-11-28T01:16:23;4.10;97.50
1155;DHT22;566;48.414;9.118;2022-11-28T01:18:49;4.10;97.70
1155;DHT22;566;48.414;9.118;2022-11-28T01:21:18;4.00;98.00
1155;DHT22;566;48.414;9.118;2022-11-28T01:23:44;4.00;97.80
1155;DHT22;566;48.414;9.118;2022-11-28T01:26:14;4.00;98.00
1155;DHT22;566;48.414;9.118;2022-11-28T01:28:40;3.90;98.00
1155;DHT22;566;48.414;9.118;2022-11-28T01:31:10;3.90;98.00
1155;DHT22;566;48.414;9.118;2022-11-28T01:33:37;3.90;98.00
1155;DHT22;566;48.414;9.118;2022-11-28T01:36:03;3.90;98.00
1155;DHT22;566;48.414;9.118;2022-11-28T01:38:29;3.90;98.00
1155;DHT22;566;48.414;9.118;2022-11-28T01:40:55;3.90;97.70
1155;DHT22;566;48.414;9.118;2022-11-28T01:43:21;4.00;97.00
1155;DHT22;566;48.414;9.118;2022-11-28T01:45:47;4.00;96.50
1155;DHT22;566;48.414;9.118;2022-11-28T01:48:16;4.10;96.00
1155;DHT22;566;48.414;9.118;2022-11-28T01:50:43;4.10;96.60
1155;DHT22;566;48.414;9.118;2022-11-28T01:53:15;4.00;96.50
1155;DHT22;566;48.414;9.118;2022-11-28T01:55:56;4.00;96.80
1155;DHT22;566;48.414;9.118;2022-11-28T01:58:23;3.90;97.00
1155;DHT22;566;48.414;9.118;2022-11-28T02:00:49;3.90;97.20
1155;DHT22;566;48.414;9.118;2022-11-28T02:03:25;3.90;97.10
1155;DHT22;566;48.414;9.118;2022-11-28T02:05:53;4.10;96.50
1155;DHT22;566;48.414;9.118;2022-11-28T02:08:18;4.10;96.50
1155;DHT22;566;48.414;9.118;2022-11-28T02:10:52;4.20;96.40
1155;DHT22;566;48.414;9.118;2022-11-28T02:13:42;4.20;96.20
1155;DHT22;566;48.414;9.118;2022-11-28T02:21:53;4.40;94.50
1155;DHT22;566;48.414;9.118;2022-11-28T02:30:18;4.30;95.80
1155;DHT22;566;48.414;9.118;2022-11-28T02:33:17;4.30;95.80
1155;DHT22;566;48.414;9.118;2022-11-28T02:36:04;4.30;95.20
1155;DHT22;566;48.414;9.118;2022-11-28T02:41:14;4.40;94.50
1155;DHT22;566;48.414;9.118;2022-11-28T02:43:56;4.50;94.80
1155;DHT22;566;48.414;9.118;2022-11-28T02:46:32;4.50;94.20
1155;DHT22;566;48.414;9.118;2022-11-28T02:49:13;4.60;94.20
1155;DHT22;566;48.414;9.118;2022-11-28T02:51:50;4.60;94.10
1155;DHT22;566;48.414;9.118;2022-11-28T02:54:17;4.50;94.20
1155;DHT22;566;48.414;9.118;2022-11-28T02:56:49;4.50;94.00
1155;DHT22;566;48.414;9.118;2022-11-28T03:02:14;4.50;94.50
1155;DHT22;566;48.414;9.118;2022-11-28T03:10:13;4.50;93.90
1155;DHT22;566;48.414;9.118;2022-11-28T03:15:22;4.60;92.70
1155;DHT22;566;48.414;9.118;2022-11-28T03:18:11;4.70;93.00
1155;DHT22;566;48.414;9.118;2022-11-28T03:20:46;4.70;93.10
1155;DHT22;566;48.414;9.118;2022-11-28T03:23:41;4.70;92.90
1155;DHT22;566;48.414;9.118;2022-11-28T03:26:26;4.60;93.10
1155;DHT22;566;48.414;9.118;2022-11-28T03:29:05;4.70;92.60
1155;DHT22;566;48.414;9.118;2022-11-28T03:31:40;4.70;92.90
1155;DHT22;566;48.414;9.118;2022-11-28T03:34:11;4.70;92.40
1155;DHT22;566;48.414;9.118;2022-11-28T03:36:51;4.80;91.80
1155;DHT22;566;48.414;9.118;2022-11-28T03:39:21;4.80;91.50
1155;DHT22;566;48.414;9.118;2022-11-28T03:41:53;4.90;91.90
1155;DHT22;566;48.414;9.118;2022-11-28T03:44:26;4.80;92.00
1155;DHT22;566;48.414;9.118;2022-11-28T03:46:55;4.80;92.50
1155;DHT22;566;48.414;9.118;2022-11-28T03:49:30;4.70;92.80
1155;DHT22;566;48.414;9.118;2022-11-28T03:52:05;4.70;93.00
1155;DHT22;566;48.414;9.118;2022-11-28T03:54:56;4.60;93.50
1155;DHT22;566;48.414;9.118;2022-11-28T03:57:37;4.50;94.10
1155;DHT22;566;48.414;9.118;2022-11-28T04:00:11;4.40;94.60
1155;DHT22;566;48.414;9.118;2022-11-28T04:02:47;4.40;94.60
1155;DHT22;566;48.414;9.118;2022-11-28T04:10:40;4.60;93.50
1155;DHT22;566;48.414;9.118;2022-11-28T04:18:52;4.50;93.90
1155;DHT22;566;48.414;9.118;2022-11-28T04:21:38;4.50;94.20
1155;DHT22;566;48.414;9.118;2022-11-28T04:24:09;4.50;93.90
1155;DHT22;566;48.414;9.118;2022-11-28T04:26:40;4.60;93.50
1155;DHT22;566;48.414;9.118;2022-11-28T04:29:09;4.50;94.20
1155;DHT22;566;48.414;9.118;2022-11-28T04:31:38;4.40;94.50
1155;DHT22;566;48.414;9.118;2022-11-28T04:34:06;4.30;94.80
1155;DHT22;566;48.414;9.118;2022-11-28T04:36:36;4.30;94.90
1155;DHT22;566;48.414;9.118;2022-11-28T04:39:04;4.20;95.30
1155;DHT22;566;48.414;9.118;2022-11-28T04:41:48;4.10;95.70
1155;DHT22;566;48.414;9.118;2022-11-28T04:46:52;4.10;96.20
1155;DHT22;566;48.414;9.118;2022-11-28T04:49:18;4.10;96.20
1155;DHT22;566;48.414;9.118;2022-11-28T05:00:03;4.10;96.20
1155;DHT22;566;48.414;9.118;2022-11-28T05:02:32;4.10;96.30
1155;DHT22;566;48.414;9.118;2022-11-28T05:04:58;4.10;96.40
1155;DHT22;566;48.414;9.118;2022-11-28T05:07:24;4.10;96.10
1155;DHT22;566;48.414;9.118;2022-11-28T05:09:50;4.10;95.70
1155;DHT22;566;48.414;9.118;2022-11-28T05:12:16;4.10;95.70
1155;DHT22;566;48.414;9.118;2022-11-28T05:14:42;4.10;95.60
1155;DHT22;566;48.414;9.118;2022-11-28T05:17:10;4.10;95.70
1155;DHT22;566;48.414;9.118;2022-11-28T05:19:36;4.10;95.90
1155;DHT22;566;48.414;9.118;2022-11-28T05:22:02;4.10;96.00
1155;DHT22;566;48.414;9.118;2022-11-28T05:24:27;4.00;96.20
1155;DHT22;566;48.414;9.118;2022-11-28T05:26:53;4.00;96.30
1155;DHT22;566;48.414;9.118;2022-11-28T05:29:19;3.90;96.40
1155;DHT22;566;48.414;9.118;2022-11-28T05:31:44;3.90;96.50
1155;DHT22;566;48.414;9.118;2022-11-28T05:34:10;3.80;96.50
1155;DHT22;566;48.414;9.118;2022-11-28T05:36:36;3.90;96.40
1155;DHT22;566;48.414;9.118;2022-11-28T05:39:01;3.90;96.70
1155;DHT22;566;48.414;9.118;2022-11-28T05:41:29;3.90;96.90
1155;DHT22;566;48.414;9.118;2022-11-28T05:43:58;3.90;96.90
1155;DHT22;566;48.414;9.118;2022-11-28T05:46:25;3.90;97.00
1155;DHT22;566;48.414;9.118;2022-11-28T05:48:51;4.00;96.40
1155;DHT22;566;48.414;9.118;2022-11-28T05:51:16;4.00;95.90
1155;DHT22;566;48.414;9.118;2022-11-28T05:53:42;4.10;95.10
1155;DHT22;566;48.414;9.118;2022-11-28T05:56:09;4.20;94.40
1155;DHT22;566;48.414;9.118;2022-11-28T05:58:36;4.30;94.40
1155;DHT22;566;48.414;9.118;2022-11-28T06:01:21;4.30;94.00
1155;DHT22;566;48.414;9.118;2022-11-28T06:03:47;4.40;93.50
1155;DHT22;566;48.414;9.118;2022-11-28T06:06:20;4.40;93.20
1155;DHT22;566;48.414;9.118;2022-11-28T06:08:47;4.40;93.40
1155;DHT22;566;48.414;9.118;2022-11-28T06:11:14;4.30;94.20
1155;DHT22;566;48.414;9.118;2022-11-28T06:13:42;4.30;93.50
1155;DHT22;566;48.414;9.118;2022-11-28T06:16:12;4.30;94.30
1155;DHT22;566;48.414;9.118;2022-11-28T06:18:39;4.30;94.30
1155;DHT22;566;48.414;9.118;2022-11-28T06:21:06;4.30;94.00
1155;DHT22;566;48.414;9.118;2022-11-28T06:23:32;4.30;94.50
1155;DHT22;566;48.414;9.118;2022-11-28T06:26:09;4.30;94.20
1155;DHT22;566;48.414;9.118;2022-11-28T06:28:35;4.40;94.30
1155;DHT22;566;48.414;9.118;2022-11-28T06:31:01;4.40;94.10
1155;DHT22;566;48.414;9.118;2022-11-28T06:33:26;4.50;94.10
1155;DHT22;566;48.414;9.118;2022-11-28T06:36:01;4.50;93.30
1155;DHT22;566;48.414;9.118;2022-11-28T06:38:27;4.50;93.60
1155;DHT22;566;48.414;9.118;2022-11-28T06:41:04;4.60;94.00
1155;DHT22;566;48.414;9.118;2022-11-28T06:43:33;4.70;93.20
1155;DHT22;566;48.414;9.118;2022-11-28T06:45:59;4.90;92.00
1155;DHT22;566;48.414;9.118;2022-11-28T06:48:25;5.10;91.40
1155;DHT22;566;48.414;9.118;2022-11-28T06:50:51;5.10;91.60
1155;DHT22;566;48.414;9.118;2022-11-28T06:53:17;5.20;91.40
1155;DHT22;566;48.414;9.118;2022-11-28T06:55:43;5.20;91.50
1155;DHT22;566;48.414;9.118;2022-11-28T06:58:09;5.30;91.50
1155;DHT22;566;48.414;9.118;2022-11-28T07:00:35;5.20;92.30
1155;DHT22;566;48.414;9.118;2022-11-28T07:03:01;5.10;92.90
1155;DHT22;566;48.414;9.118;2022-11-28T07:05:28;5.10;93.00
1155;DHT22;566;48.414;9.118;2022-11-28T07:07:59;5.10;94.00
1155;DHT22;566;48.414;9.118;2022-11-28T07:10:26;5.10;94.50
1155;DHT22;566;48.414;9.118;2022-11-28T07:12:56;5.10;95.20
1155;DHT22;566;48.414;9.118;2022-11-28T07:15:23;5.00;95.60
1155;DHT22;566;48.414;9.118;2022-11-28T07:17:49;5.00;96.00
1155;DHT22;566;48.414;9.118;2022-11-28T07:20:15;4.80;96.60
1155;DHT22;566;48.414;9.118;2022-11-28T07:22:40;4.60;96.80
1155;DHT22;566;48.414;9.118;2022-11-28T07:25:08;4.60;97.10
1155;DHT22;566;48.414;9.118;2022-11-28T07:27:34;4.60;97.70
1155;DHT22;566;48.414;9.118;2022-11-28T07:29:59;4.70;97.40
1155;DHT22;566;48.414;9.118;2022-11-28T07:32:25;4.70;97.50
1155;DHT22;566;48.414;9.118;2022-11-28T07:34:50;4.90;97.00
1155;DHT22;566;48.414;9.118;2022-11-28T07:37:16;4.90;97.20
1155;DHT22;566;48.414;9.118;2022-11-28T07:39:41;4.90;97.40
1155;DHT22;566;48.414;9.118;2022-11-28T07:42:09;5.00;97.70
1155;DHT22;566;48.414;9.118;2022-11-28T07:44:35;5.10;96.60
1155;DHT22;566;48.414;9.118;2022-11-28T07:47:00;5.30;94.80
1155;DHT22;566;48.414;9.118;2022-11-28T07:49:26;5.40;95.60
1155;DHT22;566;48.414;9.118;2022-11-28T07:51:52;5.50;94.70
1155;DHT22;566;48.414;9.118;2022-11-28T07:54:17;5.50;94.70
1155;DHT22;566;48.414;9.118;2022-11-28T07:56:43;5.60;95.80
1155;DHT22;566;48.414;9.118;2022-11-28T07:59:08;5.60;95.20
1155;DHT22;566;48.414;9.118;2022-11-28T08:01:34;5.60;94.90
1155;DHT22;566;48.414;9.118;2022-11-28T08:04:01;5.70;94.90
1155;DHT22;566;48.414;9.118;2022-11-28T08:06:29;5.70;95.60
1155;DHT22;566;48.414;9.118;2022-11-28T08:08:56;5.60;96.00
1155;DHT22;566;48.414;9.118;2022-11-28T08:11:23;5.60;96.10
1155;DHT22;566;48.414;9.118;2022-11-28T08:13:50;5.70;95.10
1155;DHT22;566;48.414;9.118;2022-11-28T08:16:18;5.80;94.40
1155;DHT22;566;48.414;9.118;2022-11-28T08:18:45;6.00;94.10
1155;DHT22;566;48.414;9.118;2022-11-28T08:21:14;6.00;94.20
1155;DHT22;566;48.414;9.118;2022-11-28T08:23:41;6.10;95.10
1155;DHT22;566;48.414;9.118;2022-11-28T08:26:09;6.00;95.70
1155;DHT22;566;48.414;9.118;2022-11-28T08:28:35;5.90;96.00
1155;DHT22;566;48.414;9.118;2022-11-28T08:31:15;5.80;96.00
1155;DHT22;566;48.414;9.118;2022-11-28T08:33:41;5.90;96.30
1155;DHT22;566;48.414;9.118;2022-11-28T08:36:09;6.00;96.00
1155;DHT22;566;48.414;9.118;2022-11-28T08:38:35;6.00;96.00
1155;DHT22;566;48.414;9.118;2022-11-28T08:41:02;6.00;96.40
1155;DHT22;566;48.414;9.118;2022-11-28T08:43:28;6.00;96.50
1155;DHT22;566;48.414;9.118;2022-11-28T08:45:54;6.00;96.80
1155;DHT22;566;48.414;9.118;2022-11-28T08:48:19;6.20;96.40
1155;DHT22;566;48.414;9.118;2022-11-28T08:50:46;6.30;96.20
1155;DHT22;566;48.414;9.118;2022-11-28T08:53:12;6.40;96.50
1155;DHT22;566;48.414;9.118;2022-11-28T08:55:40;6.50;95.90
1155;DHT22;566;48.414;9.118;2022-11-28T08:58:06;6.60;95.60
1155;DHT22;566;48.414;9.118;2022-11-28T09:00:32;6.70;95.70
1155;DHT22;566;48.414;9.118;2022-11-28T09:02:58;6.80;95.10
1155;DHT22;566;48.414;9.118;2022-11-28T09:05:23;6.80;94.70
1155;DHT22;566;48.414;9.118;2022-11-28T09:07:49;7.00;93.80
1155;DHT22;566;48.414;9.118;2022-11-28T09:10:15;7.10;93.80
1155;DHT22;566;48.414;9.118;2022-11-28T09:12:40;7.20;93.30
1155;DHT22;566;48.414;9.118;2022-11-28T09:15:06;7.10;93.80
1155;DHT22;566;48.414;9.118;2022-11-28T09:17:32;7.30;93.40
1155;DHT22;566;48.414;9.118;2022-11-28T09:19:58;7.30;92.30
1155;DHT22;566;48.414;9.118;2022-11-28T09:22:23;7.40;93.00
1155;DHT22;566;48.414;9.118;2022-11-28T09:24:49;7.40;93.60
1155;DHT22;566;48.414;9.118;2022-11-28T09:27:14;7.60;94.20
1155;DHT22;566;48.414;9.118;2022-11-28T09:29:40;7.80;92.80
1155;DHT22;566;48.414;9.118;2022-11-28T09:32:05;8.10;89.90
1155;DHT22;566;48.414;9.118;2022-11-28T09:34:31;8.20;91.90
1155;DHT22;566;48.414;9.118;2022-11-28T09:36:57;8.30;92.50
1155;DHT22;566;48.414;9.118;2022-11-28T09:39:23;8.40;93.20
1155;DHT22;566;48.414;9.118;2022-11-28T09:41:49;8.40;93.30
1155;DHT22;566;48.414;9.118;2022-11-28T09:44:32;8.40;93.60
1155;DHT22;566;48.414;9.118;2022-11-28T09:47:05;8.40;91.30
1155;DHT22;566;48.414;9.118;2022-11-28T09:49:50;8.50;85.60
1155;DHT22;566;48.414;9.118;2022-11-28T09:57:54;9.10;84.10
1155;DHT22;566;48.414;9.118;2022-11-28T10:00:23;9.20;83.90
1155;DHT22;566;48.414;9.118;2022-11-28T10:06:23;9.30;82.60
1155;DHT22;566;48.414;9.118;2022-11-28T10:17:33;9.90;81.10
1155;DHT22;566;48.414;9.118;2022-11-28T10:22:45;10.20;81.30
1155;DHT22;566;48.414;9.118;2022-11-28T10:25:34;10.40;80.30
1155;DHT22;566;48.414;9.118;2022-11-28T10:28:04;10.60;81.00
1155;DHT22;566;48.414;9.118;2022-11-28T10:30:32;10.60;79.90
1155;DHT22;566;48.414;9.118;2022-11-28T10:33:33;10.60;80.10
1155;DHT22;566;48.414;9.118;2022-11-28T10:36:01;10.70;80.10
1155;DHT22;566;48.414;9.118;2022-11-28T10:38:31;10.70;79.60
1155;DHT22;566;48.414;9.118;2022-11-28T10:41:37;10.70;80.30
1155;DHT22;566;48.414;9.118;2022-11-28T10:44:27;10.70;81.80
1155;DHT22;566;48.414;9.118;2022-11-28T10:48:01;10.70;82.10
1155;DHT22;566;48.414;9.118;2022-11-28T10:50:18;10.70;82.20
1155;DHT22;566;48.414;9.118;2022-11-28T10:52:53;10.60;82.40
1155;DHT22;566;48.414;9.118;2022-11-28T11:00:34;10.30;82.10
1155;DHT22;566;48.414;9.118;2022-11-28T11:03:02;10.40;81.70
1155;DHT22;566;48.414;9.118;2022-11-28T11:05:32;10.50;83.00
1155;DHT22;566;48.414;9.118;2022-11-28T11:10:42;10.50;81.40
1155;DHT22;566;48.414;9.118;2022-11-28T11:15:44;10.70;81.70
1155;DHT22;566;48.414;9.118;2022-11-28T11:18:29;10.70;82.30
1155;DHT22;566;48.414;9.118;2022-11-28T11:21:18;10.80;82.60
1155;DHT22;566;48.414;9.118;2022-11-28T11:23:45;10.80;82.00
1155;DHT22;566;48.414;9.118;2022-11-28T11:26:28;10.90;82.00
1155;DHT22;566;48.414;9.118;2022-11-28T11:28:58;11.00;81.70
1155;DHT22;566;48.414;9.118;2022-11-28T11:31:30;10.90;80.80
1155;DHT22;566;48.414;9.118;2022-11-28T11:34:06;11.00;79.90
1155;DHT22;566;48.414;9.118;2022-11-28T11:36:35;11.00;79.50
1155;DHT22;566;48.414;9.118;2022-11-28T11:39:09;10.90;80.80
1155;DHT22;566;48.414;9.118;2022-11-28T11:42:28;10.70;83.10
1155;DHT22;566;48.414;9.118;2022-11-28T11:44:34;10.30;85.90
1155;DHT22;566;48.414;9.118;2022-11-28T11:47:08;9.70;88.20
1155;DHT22;566;48.414;9.118;2022-11-28T11:49:37;9.40;89.40
1155;DHT22;566;48.414;9.118;2022-11-28T11:57:37;9.40;89.40
1155;DHT22;566;48.414;9.118;2022-11-28T12:02:57;9.50;92.40
1155;DHT22;566;48.414;9.118;2022-11-28T12:05:38;9.50;93.20
1155;DHT22;566;48.414;9.118;2022-11-28T12:08:30;9.60;93.90
1155;DHT22;566;48.414;9.118;2022-11-28T12:11:21;9.70;93.90
1155;DHT22;566;48.414;9.118;2022-11-28T12:13:49;9.60;92.30
1155;DHT22;566;48.414;9.118;2022-11-28T12:16:29;9.60;92.50
1155;DHT22;566;48.414;9.118;2022-11-28T12:19:09;9.60;92.90
1155;DHT22;566;48.414;9.118;2022-11-28T12:22:12;9.60;93.20
1155;DHT22;566;48.414;9.118;2022-11-28T12:30:05;9.60;94.40
1155;DHT22;566;48.414;9.118;2022-11-28T12:36:18;9.80;93.80
1155;DHT22;566;48.414;9.118;2022-11-28T12:39:02;9.90;93.20
1155;DHT22;566;48.414;9.118;2022-11-28T12:44:41;10.10;92.70
1155;DHT22;566;48.414;9.118;2022-11-28T12:47:35;10.10;93.30
1155;DHT22;566;48.414;9.118;2022-11-28T12:59:08;10.50;91.10
1155;DHT22;566;48.414;9.118;2022-11-28T13:08:24;10.40;93.40
1155;DHT22;566;48.414;9.118;2022-11-28T13:11:14;10.50;92.00
1155;DHT22;566;48.414;9.118;2022-11-28T13:16:27;10.60;91.20
1155;DHT22;566;48.414;9.118;2022-11-28T13:19:02;10.70;91.70
1155;DHT22;566;48.414;9.118;2022-11-28T13:22:34;10.70;91.90
1155;DHT22;566;48.414;9.118;2022-11-28T13:32:41;10.30;93.10
1155;DHT22;566;48.414;9.118;2022-11-28T13:35:16;10.40;93.40
1155;DHT22;566;48.414;9.118;2022-11-28T13:38:44;10.30;93.50
1155;DHT22;566;48.414;9.118;2022-11-28T13:41:00;10.20;94.50
1155;DHT22;566;48.414;9.118;2022-11-28T13:43:57;10.10;94.10
1155;DHT22;566;48.414;9.118;2022-11-28T13:46:27;10.10;94.40
1155;DHT22;566;48.414;9.118;2022-11-28T13:49:18;10.10;94.30
1155;DHT22;566;48.414;9.118;2022-11-28T13:51:44;9.90;94.70
1155;DHT22;566;48.414;9.118;2022-11-28T13:59:28;9.80;95.70
1155;DHT22;566;48.414;9.118;2022-11-28T14:01:58;9.70;95.90
1155;DHT22;566;48.414;9.118;2022-11-28T14:04:27;9.70;95.90
1155;DHT22;566;48.414;9.118;2022-11-28T14:07:20;9.60;95.90
1155;DHT22;566;48.414;9.118;2022-11-28T14:10:17;9.60;94.90
1155;DHT22;566;48.414;9.118;2022-11-28T14:27:24;9.20;94.30
1155;DHT22;566;48.414;9.118;2022-11-28T14:29:52;9.10;94.60
1155;DHT22;566;48.414;9.118;2022-11-28T14:32:38;9.00;94.50
1155;DHT22;566;48.414;9.118;2022-11-28T14:35:16;9.00;94.60
1155;DHT22;566;48.414;9.118;2022-11-28T14:37:52;8.90;95.20
1155;DHT22;566;48.414;9.118;2022-11-28T14:40:59;8.80;95.00
1155;DHT22;566;48.414;9.118;2022-11-28T14:43:28;8.80;95.50
1155;DHT22;566;48.414;9.118;2022-11-28T14:54:36;8.60;95.20
1155;DHT22;566;48.414;9.118;2022-11-28T14:57:12;8.60;94.90
1155;DHT22;566;48.414;9.118;2022-11-28T14:59:39;8.60;95.10
1155;DHT22;566;48.414;9.118;2022-11-28T15:04:49;8.50;95.50
1155;DHT22;566;48.414;9.118;2022-11-28T15:13:02;8.50;95.20
1155;DHT22;566;48.414;9.118;2022-11-28T15:15:30;8.50;95.50
1155;DHT22;566;48.414;9.118;2022-11-28T15:17:59;8.50;94.70
1155;DHT22;566;48.414;9.118;2022-11-28T15:20:34;8.60;95.00
1155;DHT22;566;48.414;9.118;2022-11-28T15:23:01;8.60;94.80
1155;DHT22;566;48.414;9.118;2022-11-28T15:25:28;8.60;95.10
1155;DHT22;566;48.414;9.118;2022-11-28T15:28:14;8.60;94.10
1155;DHT22;566;48.414;9.118;2022-11-28T15:30:46;8.50;94.20
1155;DHT22;566;48.414;9.118;2022-11-28T15:33:12;8.40;94.80
1155;DHT22;566;48.414;9.118;2022-11-28T15:38:28;8.40;94.60
1155;DHT22;566;48.414;9.118;2022-11-28T15:40:57;8.30;95.20
1155;DHT22;566;48.414;9.118;2022-11-28T15:43:24;8.40;95.10
1155;DHT22;566;48.414;9.118;2022-11-28T15:45:56;8.30;95.20
1155;DHT22;566;48.414;9.118;2022-11-28T15:48:27;8.30;95.40
1155;DHT22;566;48.414;9.118;2022-11-28T15:50:54;8.30;95.80
1155;DHT22;566;48.414;9.118;2022-11-28T15:53:20;8.30;96.40
1155;DHT22;566;48.414;9.118;2022-11-28T15:55:46;8.20;96.40
1155;DHT22;566;48.414;9.118;2022-11-28T16:00:49;8.10;96.90
1155;DHT22;566;48.414;9.118;2022-11-28T16:03:22;8.20;96.60
1155;DHT22;566;48.414;9.118;2022-11-28T16:05:50;8.10;96.90
1155;DHT22;566;48.414;9.118;2022-11-28T16:08:32;8.10;97.30
1155;DHT22;566;48.414;9.118;2022-11-28T16:11:01;8.00;97.30
1155;DHT22;566;48.414;9.118;2022-11-28T16:13:28;7.90;97.20
1155;DHT22;566;48.414;9.118;2022-11-28T16:15:56;7.90;97.20
1155;DHT22;566;48.414;9.118;2022-11-28T16:18:25;7.80;97.00
1155;DHT22;566;48.414;9.118;2022-11-28T16:20:52;7.80;96.50
1155;DHT22;566;48.414;9.118;2022-11-28T16:23:34;7.80;95.40
1155;DHT22;566;48.414;9.118;2022-11-28T16:26:20;7.80;94.70
1155;DHT22;566;48.414;9.118;2022-11-28T16:29:02;7.70;94.70
1155;DHT22;566;48.414;9.118;2022-11-28T16:31:34;7.70;94.40
1155;DHT22;566;48.414;9.118;2022-11-28T16:34:01;7.60;93.60
1155;DHT22;566;48.414;9.118;2022-11-28T16:36:35;7.60;93.40
1155;DHT22;566;48.414;9.118;2022-11-28T16:39:06;7.60;92.50
1155;DHT22;566;48.414;9.118;2022-11-28T16:41:47;7.60;92.40
1155;DHT22;566;48.414;9.118;2022-11-28T16:44:15;7.60;92.10
1155;DHT22;566;48.414;9.118;2022-11-28T16:46:53;7.60;92.20
1155;DHT22;566;48.414;9.118;2022-11-28T16:49:35;7.50;92.40
1155;DHT22;566;48.414;9.118;2022-11-28T16:54:52;7.40;93.80
1155;DHT22;566;48.414;9.118;2022-11-28T16:57:18;7.40;93.20
1155;DHT22;566;48.414;9.118;2022-11-28T16:59:45;7.30;93.80
1155;DHT22;566;48.414;9.118;2022-11-28T17:02:19;7.40;94.10
1155;DHT22;566;48.414;9.118;2022-11-28T17:04:47;7.40;94.70
1155;DHT22;566;48.414;9.118;2022-11-28T17:07:15;7.30;93.50
1155;DHT22;566;48.414;9.118;2022-11-28T17:09:42;7.30;93.70
1155;DHT22;566;48.414;9.118;2022-11-28T17:12:30;7.20;93.70
1155;DHT22;566;48.414;9.118;2022-11-28T17:14:59;7.20;92.50
1155;DHT22;566;48.414;9.118;2022-11-28T17:17:26;7.20;93.30
1155;DHT22;566;48.414;9.118;2022-11-28T17:19:51;7.20;93.70
1155;DHT22;566;48.414;9.118;2022-11-28T17:22:23;7.10;93.10
1155;DHT22;566;48.414;9.118;2022-11-28T17:24:50;7.10;94.10
1155;DHT22;566;48.414;9.118;2022-11-28T17:27:16;7.20;91.70
1155;DHT22;566;48.414;9.118;2022-11-28T17:29:41;7.20;91.40
1155;DHT22;566;48.414;9.118;2022-11-28T17:32:11;7.30;90.30
1155;DHT22;566;48.414;9.118;2022-11-28T17:34:37;7.30;89.70
1155;DHT22;566;48.414;9.118;2022-11-28T17:37:03;7.40;90.10
1155;DHT22;566;48.414;9.118;2022-11-28T17:39:30;7.60;89.60
1155;DHT22;566;48.414;9.118;2022-11-28T17:41:56;7.60;89.40
1155;DHT22;566;48.414;9.118;2022-11-28T17:44:25;7.70;89.20
1155;DHT22;566;48.414;9.118;2022-11-28T17:46:52;7.80;89.50
1155;DHT22;566;48.414;9.118;2022-11-28T17:49:18;7.90;89.40
1155;DHT22;566;48.414;9.118;2022-11-28T17:51:44;7.90;90.10
1155;DHT22;566;48.414;9.118;2022-11-28T17:54:11;7.90;90.10
1155;DHT22;566;48.414;9.118;2022-11-28T17:56:40;7.90;90.50
1155;DHT22;566;48.414;9.118;2022-11-28T17:59:06;7.90;90.90
1155;DHT22;566;48.414;9.118;2022-11-28T18:01:32;7.90;91.10
1155;DHT22;566;48.414;9.118;2022-11-28T18:03:58;7.90;91.40
1155;DHT22;566;48.414;9.118;2022-11-28T18:06:23;7.90;92.20
1155;DHT22;566;48.414;9.118;2022-11-28T18:08:50;7.90;92.30
1155;DHT22;566;48.414;9.118;2022-11-28T18:11:17;7.90;92.60
1155;DHT22;566;48.414;9.118;2022-11-28T18:13:43;8.00;92.20
1155;DHT22;566;48.414;9.118;2022-11-28T18:16:10;7.90;94.20
1155;DHT22;566;48.414;9.118;2022-11-28T18:18:37;7.80;96.20
1155;DHT22;566;48.414;9.118;2022-11-28T18:21:05;7.50;97.80
1155;DHT22;566;48.414;9.118;2022-11-28T18:23:31;7.30;98.00
1155;DHT22;566;48.414;9.118;2022-11-28T18:25:57;7.00;98.00
1155;DHT22;566;48.414;9.118;2022-11-28T18:28:23;6.90;98.00
1155;DHT22;566;48.414;9.118;2022-11-28T18:30:48;6.80;98.00
1155;DHT22;566;48.414;9.118;2022-11-28T18:33:22;6.80;98.00
1155;DHT22;566;48.414;9.118;2022-11-28T18:35:48;6.80;98.00
1155;DHT22;566;48.414;9.118;2022-11-28T18:38:13;6.70;98.00
1155;DHT22;566;48.414;9.118;2022-11-28T18:40:39;6.60;98.00
1155;DHT22;566;48.414;9.118;2022-11-28T18:43:05;6.70;98.00
1155;DHT22;566;48.414;9.118;2022-11-28T18:45:31;6.50;97.70
1155;DHT22;566;48.414;9.118;2022-11-28T18:47:57;6.50;97.50
1155;DHT22;566;48.414;9.118;2022-11-28T18:50:23;6.50;96.60
1155;DHT22;566;48.414;9.118;2022-11-28T18:52:49;6.40;96.10
1155;DHT22;566;48.414;9.118;2022-11-28T18:55:15;6.40;96.20
1155;DHT22;566;48.414;9.118;2022-11-28T18:57:42;6.30;94.80
1155;DHT22;566;48.414;9.118;2022-11-28T19:00:11;6.30;94.50
1155;DHT22;566;48.414;9.118;2022-11-28T19:02:37;6.20;93.90
1155;DHT22;566;48.414;9.118;2022-11-28T19:05:02;6.20;93.60
1155;DHT22;566;48.414;9.118;2022-11-28T19:07:28;6.20;93.20
1155;DHT22;566;48.414;9.118;2022-11-28T19:09:57;6.20;93.20
1155;DHT22;566;48.414;9.118;2022-11-28T19:12:22;6.20;92.90
1155;DHT22;566;48.414;9.118;2022-11-28T19:14:49;6.10;92.80
1155;DHT22;566;48.414;9.118;2022-11-28T19:17:18;6.10;92.50
1155;DHT22;566;48.414;9.118;2022-11-28T19:19:43;6.10;92.30
1155;DHT22;566;48.414;9.118;2022-11-28T19:22:09;6.10;91.70
1155;DHT22;566;48.414;9.118;2022-11-28T19:24:35;6.10;91.80
1155;DHT22;566;48.414;9.118;2022-11-28T19:27:02;6.10;91.90
1155;DHT22;566;48.414;9.118;2022-11-28T19:29:27;6.10;91.90
1155;DHT22;566;48.414;9.118;2022-11-28T19:31:53;6.10;93.10
1155;DHT22;566;48.414;9.118;2022-11-28T19:34:19;6.10;93.10
1155;DHT22;566;48.414;9.118;2022-11-28T19:36:47;6.20;93.40
1155;DHT22;566;48.414;9.118;2022-11-28T19:39:21;6.20;93.60
1155;DHT22;566;48.414;9.118;2022-11-28T19:41:48;6.20;93.30
1155;DHT22;566;48.414;9.118;2022-11-28T19:44:14;6.20;93.90